Time;durP1;ratioP1;P1;durP2;ratioP2;P2;SDS_P1;SDS_P2;PMS_P1;PMS_P2;Temp;Humidity;BMP_temperature;BMP_pressure;BME280_temperature;BME280_humidity;BME280_pressure;Samples;Min_cycle;Max_cycle;Signal;HPM_P1;HPM_P2
2022/11/02 00:02:15;;;;;;;10.43;4.97;;;;;;;;;;4905411;29;20044;-69
2022/11/02 00:04:41;;;;;;;10.50;4.75;;;;;;;;;;4905705;29;20418;-69
2022/11/02 00:07:06;;;;;;;7.68;5.07;;;;;;;;;;4905094;28;20085;-69
2022/11/02 00:09:32;;;;;;;9.68;4.22;;;;;;;;;;4904906;29;20051;-69
2022/11/02 00:11:57;;;;;;;7.72;5.20;;;;;;;;;;4905467;28;20107;-69
2022/11/02 00:14:23;;;;;;;10.13;5.28;;;;;;;;;;4904807;29;20055;-69
2022/11/02 00:16:48;;;;;;;14.30;4.75;;;;;;;;;;4905243;29;20051;-68
2022/11/02 00:19:14;;;;;;;7.35;4.13;;;;;;;;;;4903788;28;20048;-69
2022/11/02 00:21:40;;;;;;;10.23;4.68;;;;;;;;;;4905342;29;20838;-69
2022/11/02 00:24:06;;;;;;;11.10;4.85;;;;;;;;;;4905359;28;20167;-69
2022/11/02 00:26:35;;;;;;;8.15;4.10;;;;;;;;;;4905270;29;20155;-69
2022/11/02 00:29:01;;;;;;;8.55;4.57;;;;;;;;;;4904496;29;20135;-68
2022/11/02 00:31:26;;;;;;;9.50;5.15;;;;;;;;;;4903914;28;20056;-69
2022/11/02 00:33:52;;;;;;;13.23;4.95;;;;;;;;;;4903690;29;20107;-69
2022/11/02 00:36:17;;;;;;;12.63;5.60;;;;;;;;;;4905202;28;20966;-69
2022/11/02 00:38:43;;;;;;;10.30;4.90;;;;;;;;;;4905191;29;20048;-69
2022/11/02 00:41:08;;;;;;;10.80;5.95;;;;;;;;;;4902526;28;20115;-69
2022/11/02 00:43:34;;;;;;;8.75;4.72;;;;;;;;;;4903575;29;20095;-69
2022/11/02 00:46:00;;;;;;;8.60;4.63;;;;;;;;;;4903801;29;20143;-69
2022/11/02 00:48:25;;;;;;;9.95;4.70;;;;;;;;;;4919796;28;20709;-69
2022/11/02 00:50:52;;;;;;;7.55;4.53;;;;;;;;;;4919450;29;20052;-69
2022/11/02 00:53:20;;;;;;;11.63;5.00;;;;;;;;;;4901955;28;20052;-68
2022/11/02 00:55:52;;;;;;;8.57;4.85;;;;;;;;;;4903490;29;20052;-69
2022/11/02 00:58:18;;;;;;;7.10;3.63;;;;;;;;;;4903866;29;20560;-69
2022/11/02 01:00:44;;;;;;;9.15;4.55;;;;;;;;;;4904595;28;20527;-69
2022/11/02 01:03:09;;;;;;;9.48;4.15;;;;;;;;;;4902158;29;20393;-69
2022/11/02 01:05:36;;;;;;;5.25;3.45;;;;;;;;;;4902432;29;20425;-69
2022/11/02 01:08:02;;;;;;;5.78;3.55;;;;;;;;;;4901617;29;20036;-69
2022/11/02 01:10:27;;;;;;;6.28;3.25;;;;;;;;;;4901582;29;21730;-69
2022/11/02 01:12:53;;;;;;;9.63;3.30;;;;;;;;;;4901831;29;20078;-68
2022/11/02 01:15:18;;;;;;;5.28;2.78;;;;;;;;;;4900076;29;20072;-69
2022/11/02 01:17:44;;;;;;;9.05;2.85;;;;;;;;;;4901976;29;20047;-68
2022/11/02 01:20:10;;;;;;;7.43;2.75;;;;;;;;;;4903410;29;20515;-69
2022/11/02 01:22:35;;;;;;;7.40;2.60;;;;;;;;;;4903987;29;20663;-67
2022/11/02 01:25:00;;;;;;;5.60;2.97;;;;;;;;;;4907528;29;20060;-66
2022/11/02 01:27:26;;;;;;;7.63;2.65;;;;;;;;;;4908370;29;20055;-66
2022/11/02 01:29:51;;;;;;;5.72;2.45;;;;;;;;;;4909186;28;20420;-67
2022/11/02 01:32:17;;;;;;;7.90;3.40;;;;;;;;;;4907448;29;20155;-67
2022/11/02 01:34:42;;;;;;;2.80;2.50;;;;;;;;;;4907883;29;20052;-68
2022/11/02 01:37:09;;;;;;;5.53;2.50;;;;;;;;;;4903022;29;20048;-67
2022/11/02 01:39:34;;;;;;;3.80;2.88;;;;;;;;;;4904840;29;20048;-67
2022/11/02 01:42:00;;;;;;;7.25;3.22;;;;;;;;;;4904753;28;20108;-67
2022/11/02 01:44:31;;;;;;;8.43;2.78;;;;;;;;;;4903404;29;20056;-67
2022/11/02 01:47:04;;;;;;;4.78;2.70;;;;;;;;;;4903520;29;20825;-67
2022/11/02 01:49:33;;;;;;;5.72;2.63;;;;;;;;;;4904443;28;20052;-67
2022/11/02 01:52:04;;;;;;;5.72;3.08;;;;;;;;;;4905275;29;20052;-68
2022/11/02 01:54:36;;;;;;;6.68;3.33;;;;;;;;;;4903880;28;20059;-68
2022/11/02 01:57:08;;;;;;;5.25;3.35;;;;;;;;;;4904570;29;20088;-67
2022/11/02 01:59:35;;;;;;;;;;;;;;;;;;4918594;28;20509;-68
2022/11/02 02:02:06;;;;;;;5.78;3.30;;;;;;;;;;4903870;29;19923;-67
2022/11/02 02:04:32;;;;;;;9.63;3.40;;;;;;;;;;4901656;29;20737;-68
2022/11/02 02:06:58;;;;;;;7.20;3.38;;;;;;;;;;4914843;28;20091;-67
2022/11/02 02:09:25;;;;;;;6.50;3.53;;;;;;;;;;4917851;29;20044;-69
2022/11/02 02:11:51;;;;;;;6.38;3.13;;;;;;;;;;4904297;28;20056;-67
2022/11/02 02:14:18;;;;;;;7.45;3.65;;;;;;;;;;4901885;29;20457;-68
2022/11/02 02:16:51;;;;;;;6.72;3.03;;;;;;;;;;4918452;29;20052;-71
2022/11/02 02:19:20;;;;;;;5.60;2.88;;;;;;;;;;4903110;28;20538;-68
2022/11/02 02:21:55;;;;;;;9.43;2.85;;;;;;;;;;4902749;29;20057;-69
2022/11/02 02:24:35;;;;;;;5.35;3.10;;;;;;;;;;4903886;28;20075;-68
2022/11/02 02:27:11;;;;;;;7.30;3.08;;;;;;;;;;4903487;29;20055;-68
2022/11/02 02:30:03;;;;;;;5.25;3.35;;;;;;;;;;4917119;28;20104;-69
2022/11/02 02:32:46;;;;;;;6.80;3.45;;;;;;;;;;4902721;29;20531;-69
2022/11/02 02:35:18;;;;;;;7.53;3.70;;;;;;;;;;4901873;28;20047;-68
2022/11/02 02:38:01;;;;;;;5.60;3.33;;;;;;;;;;4888006;29;20048;-68
2022/11/02 02:41:12;;;;;;;8.55;3.47;;;;;;;;;;4907337;29;20621;-68
2022/11/02 02:43:46;;;;;;;6.13;3.35;;;;;;;;;;4905371;29;20497;-68
2022/11/02 02:46:44;;;;;;;6.57;3.53;;;;;;;;;;4921610;29;20052;-69
2022/11/02 02:49:14;;;;;;;6.60;3.40;;;;;;;;;;4904087;29;20412;-69
2022/11/02 02:51:43;;;;;;;8.93;3.15;;;;;;;;;;4906957;29;20064;-68
2022/11/02 02:54:34;;;;;;;7.78;2.90;;;;;;;;;;4921184;28;20060;-69
2022/11/02 02:57:06;;;;;;;8.07;3.20;;;;;;;;;;4921477;29;20148;-69
2022/11/02 02:59:38;;;;;;;5.65;3.20;;;;;;;;;;4904715;29;20092;-69
2022/11/02 03:02:05;;;;;;;9.18;3.75;;;;;;;;;;4921416;29;20058;-69
2022/11/02 03:04:31;;;;;;;8.90;3.30;;;;;;;;;;4905599;29;20509;-68
2022/11/02 03:06:59;;;;;;;5.97;2.92;;;;;;;;;;4906860;28;20062;-68
2022/11/02 03:09:39;;;;;;;7.82;3.20;;;;;;;;;;4904181;29;20131;-68
2022/11/02 03:12:44;;;;;;;6.60;3.85;;;;;;;;;;4905479;29;20904;-68
2022/11/02 03:15:39;;;;;;;10.88;3.20;;;;;;;;;;4907120;29;20048;-69
2022/11/02 03:18:33;;;;;;;5.20;2.78;;;;;;;;;;4905701;29;20521;-68
2022/11/02 03:21:17;;;;;;;;;;;;;;;;;;4920683;29;21027;-69
2022/11/02 03:23:54;;;;;;;6.70;2.90;;;;;;;;;;4918701;29;20418;-70
2022/11/02 03:26:28;;;;;;;3.72;2.90;;;;;;;;;;4905124;29;20052;-67
2022/11/02 03:29:10;;;;;;;6.20;2.85;;;;;;;;;;4904072;29;20115;-68
2022/11/02 03:31:54;;;;;;;6.15;3.40;;;;;;;;;;4918271;29;20484;-69
2022/11/02 03:34:30;;;;;;;7.90;3.55;;;;;;;;;;4904844;29;20191;-68
2022/11/02 03:37:10;;;;;;;5.53;3.10;;;;;;;;;;4906347;29;20040;-68
2022/11/02 03:39:44;;;;;;;5.47;3.00;;;;;;;;;;4920365;28;20044;-68
2022/11/02 03:42:16;;;;;;;5.97;2.63;;;;;;;;;;4904340;29;20461;-71
2022/11/02 03:44:44;;;;;;;3.83;2.90;;;;;;;;;;4904629;29;20062;-70
2022/11/02 03:47:14;;;;;;;5.47;2.45;;;;;;;;;;4903913;29;20284;-70
2022/11/02 03:49:41;;;;;;;6.50;2.20;;;;;;;;;;4904770;29;20461;-68
2022/11/02 03:52:11;;;;;;;5.25;3.08;;;;;;;;;;4904673;29;20048;-68
2022/11/02 03:54:58;;;;;;;3.30;1.80;;;;;;;;;;4919272;29;20107;-69
2022/11/02 03:57:34;;;;;;;3.50;1.95;;;;;;;;;;4903788;28;20044;-70
2022/11/02 04:00:15;;;;;;;5.03;1.88;;;;;;;;;;4905061;29;20079;-68
2022/11/02 04:02:48;;;;;;;7.43;2.35;;;;;;;;;;4905845;29;20138;-69
2022/11/02 04:05:15;;;;;;;4.10;1.50;;;;;;;;;;4955369;23;20057;-67
2022/11/02 04:10:32;;;;;;;2.17;1.65;;;;;;;;;;5001696;28;20098;-67
2022/11/02 04:15:42;;;;;;;1.85;1.42;;;;;;;;;;4997758;28;20076;-69
2022/11/02 04:20:52;;;;;;;7.03;1.83;;;;;;;;;;4985355;28;20567;-70
2022/11/02 04:26:04;;;;;;;5.43;1.90;;;;;;;;;;4990978;28;20060;-70
2022/11/02 04:28:34;;;;;;;5.53;1.85;;;;;;;;;;5003442;28;20211;-69
2022/11/02 04:31:00;;;;;;;4.43;1.60;;;;;;;;;;4991260;28;20520;-70
2022/11/02 04:33:32;;;;;;;2.30;1.65;;;;;;;;;;5002441;28;20053;-71
2022/11/02 04:36:29;;;;;;;2.15;1.67;;;;;;;;;;5008476;28;20436;-69
2022/11/02 04:38:56;;;;;;;5.55;2.10;;;;;;;;;;5019112;28;20038;-69
2022/11/02 04:41:43;;;;;;;3.20;2.30;;;;;;;;;;5002796;28;20075;-69
2022/11/02 04:44:14;;;;;;;8.73;2.00;;;;;;;;;;5002733;28;20041;-70
2022/11/02 04:46:44;;;;;;;3.90;1.48;;;;;;;;;;4992905;28;20111;-69
2022/11/02 04:49:11;;;;;;;9.52;2.40;;;;;;;;;;5000975;28;20406;-68
2022/11/02 04:51:39;;;;;;;5.05;2.10;;;;;;;;;;5002713;28;20133;-70
2022/11/02 04:54:05;;;;;;;3.80;2.10;;;;;;;;;;5002883;28;20076;-69
2022/11/02 04:56:31;;;;;;;5.65;2.65;;;;;;;;;;5002382;28;20053;-70
2022/11/02 04:58:58;;;;;;;5.50;2.20;;;;;;;;;;5002908;28;20103;-71
2022/11/02 05:01:26;;;;;;;4.97;2.30;;;;;;;;;;5018249;28;20049;-68
2022/11/02 05:03:53;;;;;;;9.07;2.47;;;;;;;;;;5018345;28;20092;-70
2022/11/02 05:06:20;;;;;;;8.50;2.30;;;;;;;;;;5002044;28;20491;-71
2022/11/02 05:08:47;;;;;;;4.55;2.30;;;;;;;;;;4982593;28;21069;-70
2022/11/02 05:11:13;;;;;;;4.85;2.50;;;;;;;;;;5000874;28;20041;-71
2022/11/02 05:13:39;;;;;;;5.38;2.58;;;;;;;;;;5019755;28;20053;-71
2022/11/02 05:16:11;;;;;;;3.65;2.10;;;;;;;;;;5001651;28;20037;-70
2022/11/02 05:18:37;;;;;;;6.63;2.55;;;;;;;;;;4992522;28;20068;-69
2022/11/02 05:21:04;;;;;;;5.65;2.47;;;;;;;;;;5002588;28;20111;-70
2022/11/02 05:23:30;;;;;;;2.20;2.00;;;;;;;;;;4992550;28;20045;-70
2022/11/02 05:25:59;;;;;;;4.22;2.05;;;;;;;;;;4990597;28;20607;-70
2022/11/02 05:28:26;;;;;;;6.15;2.15;;;;;;;;;;5002842;28;20033;-70
2022/11/02 05:30:52;;;;;;;4.40;1.98;;;;;;;;;;5002604;28;20053;-70
2022/11/02 05:33:18;;;;;;;3.90;2.13;;;;;;;;;;4988201;28;20047;-70
2022/11/02 05:35:44;;;;;;;2.97;1.80;;;;;;;;;;5001922;28;20048;-70
2022/11/02 05:38:10;;;;;;;7.68;1.83;;;;;;;;;;5002499;28;20045;-70
2022/11/02 05:40:39;;;;;;;3.38;1.80;;;;;;;;;;5018937;28;20128;-70
2022/11/02 05:43:08;;;;;;;9.07;2.20;;;;;;;;;;5019894;28;20049;-70
2022/11/02 05:45:35;;;;;;;2.63;1.92;;;;;;;;;;5018085;28;20500;-70
2022/11/02 05:48:01;;;;;;;4.63;1.83;;;;;;;;;;5020276;28;20517;-70
2022/11/02 05:50:27;;;;;;;6.43;1.88;;;;;;;;;;5014537;28;20998;-69
2022/11/02 05:52:53;;;;;;;4.03;2.00;;;;;;;;;;5019581;28;20111;-70
2022/11/02 05:55:18;;;;;;;3.67;1.83;;;;;;;;;;5017862;28;20050;-70
2022/11/02 05:57:49;;;;;;;4.88;2.25;;;;;;;;;;5019889;28;20085;-70
2022/11/02 06:00:15;;;;;;;7.55;2.25;;;;;;;;;;5018998;28;20045;-69
2022/11/02 06:02:40;;;;;;;4.18;2.28;;;;;;;;;;5018334;28;20488;-70
2022/11/02 06:05:06;;;;;;;5.70;2.20;;;;;;;;;;5017337;28;20136;-70
2022/11/02 06:07:32;;;;;;;7.40;2.38;;;;;;;;;;5016936;28;20719;-70
2022/11/02 06:09:57;;;;;;;8.57;4.05;;;;;;;;;;5017765;28;20207;-70
2022/11/02 06:12:22;;;;;;;7.82;2.17;;;;;;;;;;5019171;28;20049;-70
2022/11/02 06:14:48;;;;;;;5.72;2.38;;;;;;;;;;5021674;28;20045;-70
2022/11/02 06:17:13;;;;;;;4.20;2.28;;;;;;;;;;5022293;28;20114;-70
2022/11/02 06:19:39;;;;;;;5.72;2.35;;;;;;;;;;5023472;28;20045;-70
2022/11/02 06:22:04;;;;;;;6.90;2.28;;;;;;;;;;5023844;28;20083;-70
2022/11/02 06:24:29;;;;;;;7.90;2.35;;;;;;;;;;5023103;28;20049;-70
2022/11/02 06:26:55;;;;;;;8.70;3.13;;;;;;;;;;5017230;28;20413;-70
2022/11/02 06:29:22;;;;;;;5.40;2.38;;;;;;;;;;4986951;28;20079;-70
2022/11/02 06:31:47;;;;;;;4.40;2.25;;;;;;;;;;5020753;28;20489;-69
2022/11/02 06:34:12;;;;;;;2.65;1.83;;;;;;;;;;5021312;28;20087;-70
2022/11/02 06:36:38;;;;;;;5.68;2.80;;;;;;;;;;5021447;28;20126;-70
2022/11/02 06:39:03;;;;;;;7.30;2.55;;;;;;;;;;5020516;28;20096;-70
2022/11/02 06:41:29;;;;;;;5.95;2.60;;;;;;;;;;5020111;28;20045;-70
2022/11/02 06:43:55;;;;;;;4.50;2.13;;;;;;;;;;5021901;28;20499;-69
2022/11/02 06:46:20;;;;;;;8.27;3.33;;;;;;;;;;5020364;28;20053;-70
2022/11/02 06:48:46;;;;;;;9.82;2.88;;;;;;;;;;5022001;28;20041;-70
2022/11/02 06:51:12;;;;;;;6.10;2.58;;;;;;;;;;5019487;28;20053;-69
2022/11/02 06:53:37;;;;;;;4.53;2.40;;;;;;;;;;5021742;28;20076;-70
2022/11/02 06:56:03;;;;;;;14.70;3.00;;;;;;;;;;5021554;28;20102;-70
2022/11/02 06:58:29;;;;;;;7.18;2.80;;;;;;;;;;5020842;28;20056;-70
2022/11/02 07:01:02;;;;;;;4.38;2.40;;;;;;;;;;5020246;28;20693;-70
2022/11/02 07:03:29;;;;;;;8.55;2.70;;;;;;;;;;5019814;28;20553;-70
2022/11/02 07:05:55;;;;;;;7.88;3.30;;;;;;;;;;5021123;28;20045;-70
2022/11/02 07:08:21;;;;;;;10.68;2.88;;;;;;;;;;5020478;28;20413;-70
2022/11/02 07:10:47;;;;;;;10.70;3.50;;;;;;;;;;5021315;28;20497;-70
2022/11/02 07:13:12;;;;;;;5.57;2.90;;;;;;;;;;5019184;28;20052;-69
2022/11/02 07:15:38;;;;;;;10.88;3.15;;;;;;;;;;5020392;28;20398;-70
2022/11/02 07:18:05;;;;;;;8.10;3.72;;;;;;;;;;5020659;28;20056;-70
2022/11/02 07:20:31;;;;;;;9.10;4.05;;;;;;;;;;5020095;28;20060;-70
2022/11/02 07:22:59;;;;;;;6.20;3.55;;;;;;;;;;5018999;28;20072;-70
2022/11/02 07:25:26;;;;;;;10.60;3.55;;;;;;;;;;5018593;28;20923;-69
2022/11/02 07:27:52;;;;;;;15.18;3.88;;;;;;;;;;5019977;28;20046;-69
2022/11/02 07:30:18;;;;;;;6.28;3.40;;;;;;;;;;5019477;28;20402;-69
2022/11/02 07:32:45;;;;;;;7.70;3.25;;;;;;;;;;5020518;28;20107;-69
2022/11/02 07:35:12;;;;;;;9.38;3.28;;;;;;;;;;5017905;28;20045;-70
2022/11/02 07:37:38;;;;;;;8.85;3.47;;;;;;;;;;5020104;28;20037;-69
2022/11/02 07:40:05;;;;;;;3.58;2.90;;;;;;;;;;5020367;28;20041;-69
2022/11/02 07:42:31;;;;;;;7.13;3.15;;;;;;;;;;5020006;28;20065;-69
2022/11/02 07:44:57;;;;;;;8.13;3.10;;;;;;;;;;4992512;28;20169;-69
2022/11/02 07:47:22;;;;;;;5.18;2.80;;;;;;;;;;5019411;28;20053;-69
2022/11/02 07:49:48;;;;;;;7.07;2.75;;;;;;;;;;5020450;28;20580;-69
2022/11/02 07:52:13;;;;;;;7.63;2.60;;;;;;;;;;5020527;28;20050;-69
2022/11/02 07:54:39;;;;;;;6.32;3.08;;;;;;;;;;5019999;28;20045;-70
2022/11/02 07:57:04;;;;;;;5.85;2.40;;;;;;;;;;5020037;28;20063;-70
2022/11/02 07:59:29;;;;;;;6.68;2.45;;;;;;;;;;5018916;28;20058;-70
2022/11/02 08:01:55;;;;;;;11.20;2.70;;;;;;;;;;5020157;28;21186;-70
2022/11/02 08:04:20;;;;;;;3.35;1.80;;;;;;;;;;5019489;28;20080;-69
2022/11/02 08:06:46;;;;;;;8.82;2.40;;;;;;;;;;5018872;28;20051;-70
2022/11/02 08:09:11;;;;;;;7.03;2.67;;;;;;;;;;5019369;28;20492;-69
2022/11/02 08:11:37;;;;;;;4.93;2.38;;;;;;;;;;5019506;28;20052;-69
2022/11/02 08:14:02;;;;;;;5.63;2.53;;;;;;;;;;5019990;28;20053;-69
2022/11/02 08:16:29;;;;;;;4.68;2.45;;;;;;;;;;5018308;28;20053;-70
2022/11/02 08:18:57;;;;;;;5.75;2.35;;;;;;;;;;5019700;28;20106;-69
2022/11/02 08:21:23;;;;;;;4.32;2.22;;;;;;;;;;5018583;28;20061;-70
2022/11/02 08:23:48;;;;;;;6.53;2.25;;;;;;;;;;5020028;28;20056;-70
2022/11/02 08:26:13;;;;;;;5.15;2.75;;;;;;;;;;5018914;28;20107;-70
2022/11/02 08:28:39;;;;;;;12.23;3.35;;;;;;;;;;5018774;28;20045;-70
2022/11/02 08:31:06;;;;;;;9.05;3.53;;;;;;;;;;5018747;28;20052;-70
2022/11/02 08:33:32;;;;;;;6.72;3.25;;;;;;;;;;5018461;28;20110;-69
2022/11/02 08:36:03;;;;;;;7.00;3.55;;;;;;;;;;5018604;28;20049;-69
2022/11/02 08:38:29;;;;;;;10.43;3.90;;;;;;;;;;5018816;28;20156;-69
2022/11/02 08:40:54;;;;;;;9.50;4.00;;;;;;;;;;5018002;28;20063;-69
2022/11/02 08:43:20;;;;;;;7.40;4.00;;;;;;;;;;5018062;28;20049;-69
2022/11/02 08:45:45;;;;;;;6.40;3.38;;;;;;;;;;5019283;28;20052;-69
2022/11/02 08:48:11;;;;;;;6.22;2.83;;;;;;;;;;5019658;28;20087;-70
2022/11/02 08:50:37;;;;;;;6.50;2.80;;;;;;;;;;5018454;28;20068;-73
2022/11/02 08:53:03;;;;;;;6.72;3.05;;;;;;;;;;5019736;28;21395;-71
2022/11/02 08:55:29;;;;;;;5.28;2.20;;;;;;;;;;5018357;28;20577;-71
2022/11/02 08:57:57;;;;;;;4.65;2.60;;;;;;;;;;5019082;28;20169;-71
2022/11/02 09:00:28;;;;;;;4.60;2.70;;;;;;;;;;5019003;28;20053;-71
2022/11/02 09:03:06;;;;;;;7.25;3.22;;;;;;;;;;5018252;28;20053;-70
2022/11/02 09:05:37;;;;;;;6.93;2.40;;;;;;;;;;5017661;28;20087;-70
2022/11/02 09:08:08;;;;;;;9.25;2.80;;;;;;;;;;5019188;28;20073;-71
2022/11/02 09:10:35;;;;;;;5.68;2.42;;;;;;;;;;5001159;28;20045;-70
2022/11/02 09:13:03;;;;;;;6.50;2.33;;;;;;;;;;5018450;28;20049;-70
2022/11/02 09:15:29;;;;;;;5.53;2.13;;;;;;;;;;5017909;28;20454;-71
2022/11/02 09:17:55;;;;;;;3.85;2.03;;;;;;;;;;5019150;28;20901;-70
2022/11/02 09:20:21;;;;;;;5.57;2.10;;;;;;;;;;5018611;28;20046;-70
2022/11/02 09:22:47;;;;;;;5.45;1.92;;;;;;;;;;5018836;28;20049;-71
2022/11/02 09:25:14;;;;;;;1.92;1.13;;;;;;;;;;5017384;28;20055;-69
2022/11/02 09:27:40;;;;;;;3.92;1.20;;;;;;;;;;5019380;28;20465;-70
2022/11/02 09:30:06;;;;;;;6.43;1.70;;;;;;;;;;5018762;28;20030;-70
2022/11/02 09:32:32;;;;;;;2.85;1.25;;;;;;;;;;5000954;28;20320;-70
2022/11/02 09:35:07;;;;;;;5.82;2.20;;;;;;;;;;5017410;28;20080;-70
2022/11/02 09:37:33;;;;;;;4.45;1.40;;;;;;;;;;5018047;28;20045;-70
2022/11/02 09:39:58;;;;;;;2.45;0.95;;;;;;;;;;5013681;28;20484;-70
2022/11/02 09:42:33;;;;;;;4.93;1.00;;;;;;;;;;5019699;28;20052;-70
2022/11/02 09:45:06;;;;;;;5.93;1.10;;;;;;;;;;5019587;28;20505;-71
2022/11/02 09:47:41;;;;;;;5.00;1.50;;;;;;;;;;5023004;28;20432;-71
2022/11/02 09:50:23;;;;;;;7.13;1.80;;;;;;;;;;5024098;28;20404;-70
2022/11/02 09:53:01;;;;;;;1.75;1.20;;;;;;;;;;5023888;28;20037;-70
2022/11/02 09:55:34;;;;;;;4.30;1.30;;;;;;;;;;5023275;28;20243;-70
2022/11/02 09:58:11;;;;;;;3.78;1.20;;;;;;;;;;5023167;28;20102;-70
2022/11/02 10:00:40;;;;;;;5.28;1.30;;;;;;;;;;5023739;28;20049;-70
2022/11/02 10:03:36;;;;;;;3.47;1.08;;;;;;;;;;5023538;28;20562;-70
2022/11/02 10:06:10;;;;;;;3.80;1.48;;;;;;;;;;5007453;28;20489;-70
2022/11/02 10:08:54;;;;;;;5.68;1.23;;;;;;;;;;5022496;28;20041;-70
2022/11/02 10:11:32;;;;;;;6.60;1.30;;;;;;;;;;5022944;28;20748;-69
2022/11/02 10:14:03;;;;;;;5.47;1.83;;;;;;;;;;5023809;28;20045;-70
2022/11/02 10:16:36;;;;;;;5.20;1.20;;;;;;;;;;5022303;28;20048;-71
2022/11/02 10:19:09;;;;;;;7.07;1.73;;;;;;;;;;5020813;28;20053;-71
2022/11/02 10:21:37;;;;;;;3.33;1.02;;;;;;;;;;5019602;28;20126;-71
2022/11/02 10:24:32;;;;;;;8.73;1.35;;;;;;;;;;5023036;28;20064;-71
2022/11/02 10:27:05;;;;;;;3.92;1.30;;;;;;;;;;5018957;28;20049;-71
2022/11/02 10:29:46;;;;;;;4.30;1.30;;;;;;;;;;5017801;28;20124;-71
2022/11/02 10:32:12;;;;;;;4.40;1.42;;;;;;;;;;5020539;28;20044;-71
2022/11/02 10:34:39;;;;;;;6.30;1.20;;;;;;;;;;5020476;28;20040;-71
2022/11/02 10:37:32;;;;;;;4.05;1.30;;;;;;;;;;5020423;28;20123;-71
2022/11/02 10:40:18;;;;;;;4.85;1.50;;;;;;;;;;5004608;28;20132;-70
2022/11/02 10:43:08;;;;;;;5.72;1.30;;;;;;;;;;5019294;28;20072;-71
2022/11/02 10:46:03;;;;;;;5.05;1.20;;;;;;;;;;5019215;28;20052;-71
2022/11/02 10:48:36;;;;;;;3.15;1.58;;;;;;;;;;5016304;28;20124;-71
2022/11/02 10:51:12;;;;;;;4.03;1.23;;;;;;;;;;5020072;28;20047;-71
2022/11/02 10:53:43;;;;;;;4.30;1.10;;;;;;;;;;5019486;28;20056;-71
2022/11/02 10:56:16;;;;;;;2.72;0.90;;;;;;;;;;5020118;28;20049;-70
2022/11/02 10:58:58;;;;;;;5.38;1.15;;;;;;;;;;5018673;28;20053;-71
2022/11/02 11:01:24;;;;;;;2.47;0.90;;;;;;;;;;5019603;28;20056;-71
2022/11/02 11:03:54;;;;;;;2.97;0.95;;;;;;;;;;5018991;28;20045;-70
2022/11/02 11:06:21;;;;;;;5.45;1.40;;;;;;;;;;5019001;28;20053;-70
2022/11/02 11:08:48;;;;;;;5.97;1.15;;;;;;;;;;5001962;28;20502;-71
2022/11/02 11:11:17;;;;;;;3.40;0.98;;;;;;;;;;5019024;28;20070;-70
2022/11/02 11:13:51;;;;;;;9.18;1.13;;;;;;;;;;5018614;28;20049;-70
2022/11/02 11:16:17;;;;;;;7.82;0.98;;;;;;;;;;5019094;28;20049;-70
2022/11/02 11:18:50;;;;;;;5.78;0.90;;;;;;;;;;5018854;28;20060;-70
2022/11/02 11:21:15;;;;;;;6.10;1.17;;;;;;;;;;5019244;28;20049;-71
2022/11/02 11:23:41;;;;;;;5.72;1.35;;;;;;;;;;5019325;28;20045;-71
2022/11/02 11:26:26;;;;;;;6.50;1.38;;;;;;;;;;5018592;28;20115;-70
2022/11/02 11:28:54;;;;;;;5.70;1.25;;;;;;;;;;5018522;28;20411;-71
2022/11/02 11:31:20;;;;;;;5.70;1.27;;;;;;;;;;5018683;28;20050;-71
2022/11/02 11:33:49;;;;;;;3.70;1.20;;;;;;;;;;5018355;28;20049;-70
2022/11/02 11:36:24;;;;;;;2.08;0.90;;;;;;;;;;5021316;28;20112;-70
2022/11/02 11:38:53;;;;;;;6.85;1.23;;;;;;;;;;5020296;28;20061;-71
2022/11/02 11:41:19;;;;;;;4.45;1.05;;;;;;;;;;5018548;28;20060;-71
2022/11/02 11:43:45;;;;;;;2.40;1.13;;;;;;;;;;5018352;28;20049;-71
2022/11/02 11:46:13;;;;;;;3.55;1.10;;;;;;;;;;5018619;28;20045;-71
2022/11/02 11:48:39;;;;;;;3.15;1.10;;;;;;;;;;5018954;28;20670;-70
2022/11/02 11:51:31;;;;;;;3.60;0.88;;;;;;;;;;5018226;28;20052;-71
2022/11/02 11:54:22;;;;;;;4.30;1.05;;;;;;;;;;5002580;28;20104;-71
2022/11/02 11:56:50;;;;;;;2.47;0.85;;;;;;;;;;5019508;28;20049;-71
2022/11/02 11:59:20;;;;;;;5.20;1.10;;;;;;;;;;5000911;28;20111;-69
2022/11/02 12:01:46;;;;;;;2.88;0.82;;;;;;;;;;5019132;28;20409;-70
2022/11/02 12:04:11;;;;;;;4.20;1.08;;;;;;;;;;5020063;28;20053;-70
2022/11/02 12:06:54;;;;;;;4.97;0.90;;;;;;;;;;5018767;28;20041;-70
2022/11/02 12:09:34;;;;;;;6.18;0.85;;;;;;;;;;4986706;28;20040;-70
2022/11/02 12:12:16;;;;;;;4.30;1.50;;;;;;;;;;5019417;28;20053;-70
2022/11/02 12:15:03;;;;;;;4.80;1.00;;;;;;;;;;5019171;28;20122;-70
2022/11/02 12:17:45;;;;;;;5.18;1.08;;;;;;;;;;5015862;28;20047;-70
2022/11/02 12:20:36;;;;;;;4.03;1.00;;;;;;;;;;5016794;28;20052;-70
2022/11/02 12:23:31;;;;;;;4.65;1.30;;;;;;;;;;5019478;28;20482;-70
2022/11/02 12:26:34;;;;;;;4.95;1.30;;;;;;;;;;4999387;28;20272;-70
2022/11/02 12:29:15;;;;;;;5.72;1.65;;;;;;;;;;5019532;28;20521;-71
2022/11/02 12:31:50;;;;;;;5.07;1.15;;;;;;;;;;4985198;28;20309;-70
2022/11/02 12:34:46;;;;;;;4.80;1.88;;;;;;;;;;5020257;28;20082;-70
2022/11/02 12:37:48;;;;;;;4.03;1.30;;;;;;;;;;5018121;28;20187;-70
2022/11/02 12:40:31;;;;;;;6.18;1.50;;;;;;;;;;5019578;28;20084;-70
2022/11/02 12:43:37;;;;;;;2.30;1.05;;;;;;;;;;5018164;28;20060;-70
2022/11/02 12:46:25;;;;;;;9.57;1.50;;;;;;;;;;5003145;28;20083;-70
2022/11/02 12:49:02;;;;;;;4.82;1.35;;;;;;;;;;5018502;28;20206;-70
2022/11/02 12:51:42;;;;;;;4.60;1.30;;;;;;;;;;5019044;28;20123;-70
2022/11/02 12:54:10;;;;;;;3.25;1.13;;;;;;;;;;5019123;28;20091;-70
2022/11/02 12:56:45;;;;;;;6.25;1.05;;;;;;;;;;5017590;28;20052;-70
2022/11/02 12:59:27;;;;;;;4.63;1.45;;;;;;;;;;5019221;28;20049;-70
2022/11/02 13:02:17;;;;;;;8.75;1.35;;;;;;;;;;4986937;28;20045;-70
2022/11/02 13:04:48;;;;;;;9.10;1.35;;;;;;;;;;5017931;28;20037;-70
2022/11/02 13:07:20;;;;;;;7.80;1.20;;;;;;;;;;5018054;28;20060;-70
2022/11/02 13:09:58;;;;;;;11.40;1.75;;;;;;;;;;5017999;28;20359;-70
2022/11/02 13:12:24;;;;;;;4.68;1.20;;;;;;;;;;5019159;28;20037;-70
2022/11/02 13:14:56;;;;;;;5.97;1.30;;;;;;;;;;5016849;28;20048;-70
2022/11/02 13:17:43;;;;;;;5.90;1.40;;;;;;;;;;5019091;28;20688;-70
2022/11/02 13:20:23;;;;;;;8.32;1.35;;;;;;;;;;5019816;28;20107;-70
2022/11/02 13:23:01;;;;;;;6.80;1.48;;;;;;;;;;5019853;28;20055;-70
2022/11/02 13:25:32;;;;;;;8.15;1.08;;;;;;;;;;5018435;28;20570;-71
2022/11/02 13:28:01;;;;;;;7.13;1.40;;;;;;;;;;5020279;28;20045;-70
2022/11/02 13:30:27;;;;;;;3.95;1.15;;;;;;;;;;5019925;28;20499;-70
2022/11/02 13:32:57;;;;;;;2.90;1.20;;;;;;;;;;5020474;28;20140;-70
2022/11/02 13:35:32;;;;;;;7.60;1.10;;;;;;;;;;5019346;28;20056;-70
2022/11/02 13:38:10;;;;;;;10.95;1.35;;;;;;;;;;5018815;28;20095;-70
2022/11/02 13:40:40;;;;;;;11.40;1.65;;;;;;;;;;5019954;28;20433;-70
2022/11/02 13:43:30;;;;;;;4.85;1.27;;;;;;;;;;5020168;28;20052;-70
2022/11/02 13:46:29;;;;;;;5.00;1.13;;;;;;;;;;5001923;28;20041;-70
2022/11/02 13:49:02;;;;;;;3.92;1.08;;;;;;;;;;5018852;28;20516;-69
2022/11/02 13:51:41;;;;;;;3.92;1.05;;;;;;;;;;5019395;28;20033;-70
2022/11/02 13:54:15;;;;;;;12.27;1.20;;;;;;;;;;5020283;28;20155;-70
2022/11/02 13:56:41;;;;;;;7.82;1.33;;;;;;;;;;5018393;28;20046;-70
2022/11/02 13:59:09;;;;;;;2.22;0.80;;;;;;;;;;5018720;28;20069;-69
2022/11/02 14:01:39;;;;;;;3.58;0.88;;;;;;;;;;5001194;28;20042;-70
2022/11/02 14:04:10;;;;;;;6.75;1.40;;;;;;;;;;5019371;28;21086;-70
2022/11/02 14:07:04;;;;;;;5.30;1.23;;;;;;;;;;5019061;28;20052;-70
2022/11/02 14:09:38;;;;;;;4.20;1.10;;;;;;;;;;5015233;28;20576;-70
2022/11/02 14:12:16;;;;;;;4.47;1.20;;;;;;;;;;5018476;28;20092;-69
2022/11/02 14:14:42;;;;;;;3.67;1.13;;;;;;;;;;5017233;28;20128;-70
2022/11/02 14:17:11;;;;;;;8.35;1.23;;;;;;;;;;5018424;28;20049;-70
2022/11/02 14:19:42;;;;;;;6.55;1.70;;;;;;;;;;5017818;28;20057;-70
2022/11/02 14:22:16;;;;;;;8.90;1.80;;;;;;;;;;5017402;28;20485;-70
2022/11/02 14:24:42;;;;;;;4.43;1.20;;;;;;;;;;5014798;28;20922;-70
2022/11/02 14:27:17;;;;;;;3.53;1.20;;;;;;;;;;5018119;28;20041;-69
2022/11/02 14:29:46;;;;;;;4.32;1.40;;;;;;;;;;5000527;28;20144;-71
2022/11/02 14:32:29;;;;;;;4.55;1.20;;;;;;;;;;5018879;28;20409;-71
2022/11/02 14:35:23;;;;;;;3.95;1.00;;;;;;;;;;5022384;28;20140;-72
2022/11/02 14:38:16;;;;;;;4.10;1.30;;;;;;;;;;5004874;28;20052;-71
2022/11/02 14:41:01;;;;;;;4.47;1.15;;;;;;;;;;5022638;28;20041;-71
2022/11/02 14:43:54;;;;;;;5.82;1.25;;;;;;;;;;5021441;28;20480;-71
2022/11/02 14:46:23;;;;;;;3.28;1.20;;;;;;;;;;5022531;28;20053;-71
2022/11/02 14:48:54;;;;;;;5.63;0.90;;;;;;;;;;5023151;28;20379;-71
2022/11/02 14:51:25;;;;;;;8.38;1.15;;;;;;;;;;5022372;28;20069;-70
2022/11/02 14:54:15;;;;;;;6.60;1.38;;;;;;;;;;5022159;28;20041;-69
2022/11/02 14:56:53;;;;;;;2.13;0.90;;;;;;;;;;5010670;28;20051;-71
2022/11/02 14:59:27;;;;;;;2.90;0.82;;;;;;;;;;5022211;28;20985;-70
2022/11/02 15:01:58;;;;;;;1.63;0.60;;;;;;;;;;5022846;28;20088;-70
2022/11/02 15:04:25;;;;;;;2.75;0.90;;;;;;;;;;5021959;28;20061;-71
2022/11/02 15:06:56;;;;;;;4.47;0.80;;;;;;;;;;5022223;28;20038;-71
2022/11/02 15:09:50;;;;;;;6.18;1.02;;;;;;;;;;5022083;28;20052;-71
2022/11/02 15:12:29;;;;;;;8.65;1.40;;;;;;;;;;5022814;28;20076;-73
2022/11/02 15:15:29;;;;;;;2.38;1.00;;;;;;;;;;5022949;28;20057;-71
2022/11/02 15:17:54;;;;;;;2.45;1.35;;;;;;;;;;4983558;28;20096;-70
2022/11/02 15:20:28;;;;;;;3.63;1.35;;;;;;;;;;5023854;28;20053;-70
2022/11/02 15:23:28;;;;;;;4.38;1.27;;;;;;;;;;5021460;28;20057;-70